LDPLLIPQ

Guest
Details From LDPL - Pula
To LIPQ - Ronchi Dei Legionari
Flight Number -
Tags generated
Created
Modified
Stats Distance 59 nm / 110 km
Max Altitude 4,700 ft / 1,433 m
Waypoints 3
Social Downloads 2
Likes 0
Share VATSIM

Download

Looking for another format? Having issues loading an existing format? Contact us
Advertisement - Login to hide

Notes

Basic altitude profile: - Ascent Rate: 2500ft/min - Ascent Speed: 250kts - Cruise Altitude: 35000ft - Cruise Speed: 420kts - Descent Rate: 1500ft/min - Descent Speed: 250kts Options: - Use NATs: yes - Use PACOTS: yes - Use low airways: yes - Use high airways: yes

Route

LDPL PZ LIPQ

ID Type Via Altitude Latitude Longitude Leg Dist Tot Dist Heading (true) Name
O LDPL APT - 0 ft / 0 m 44.89353˚ 13.92216˚ - 0 nm - Pula
PZ NDB - 4,700 ft / 1,433 m 45.47747˚ 13.61492˚ 37 nm 37 nm 340° / 340° PORTOROZ NDB
O LIPQ APT - 0 ft / 0 m 45.82786˚ 13.46666˚ 21 nm 59 nm 344° / 343° Ronchi Dei Legionari

Altitude Profile

Advertisement - Login to hide

LDPL

Details ICAO LDPL (PUY)
Name Pula
Region Croatia
Timezone Europe/Zagreb (UTC+2.0)
Stats Elevation 274 ft / 84 m (AMSL)
Location 44.893531° 13.922156°
Runways 1
Magnetic Variation 3.524° E

METAR

LDPL 271930Z 02006KT CAVOK 21/18 Q1017 NOSIG

Decode

TAF

TAF LDPL 271725Z 2718/2818 27006KT CAVOK TX28/2812Z TN17/2803Z BECMG 2718/2720 VRB02KT TEMPO 2803/2808 09006KT BECMG 2811/2813 27007KT

Decode

Departure Runways

ID Width Length Bearing (true) Bearing (mag) Surface Threshold Offset Overrun Length
09 148 ft / 45 m 9,601 ft / 2,926 m 88.24° 84.72° Asphalt 250 ft / 76 m 0 ft / 0 m
27 148 ft / 45 m 9,601 ft / 2,926 m 268.27° 264.75° Asphalt 250 ft / 76 m 0 ft / 0 m

LIPQ

Details ICAO LIPQ (TRS)
Name Ronchi Dei Legionari
Region Italy
Timezone Europe/Rome (UTC+2.0)
Stats Elevation 37 ft / 11 m (AMSL)
Location 45.827857° 13.466663°
Runways 1
Magnetic Variation 3.482° E

METAR

LIPQ 271920Z 21003KT 160V240 9999 -RA SCT060 BKN090 23/19 Q1018

Decode

TAF

TAF LIPQ 271700Z 2718/2818 04007KT 9999 SCT030 TEMPO 2718/2721 TSRA TEMPO 2812/2818 TSRA

Decode

Destination Runways

ID Width Length Bearing (true) Bearing (mag) Surface Threshold Offset Overrun Length
09 148 ft / 45 m 9,819 ft / 2,993 m 90.42° 86.94° Asphalt 823 ft / 251 m 0 ft / 0 m
27 148 ft / 45 m 9,819 ft / 2,993 m 270.44° 266.96° Asphalt 10 ft / 3 m 190 ft / 58 m

Approach Navaids

Runway Type Ident Frequency Range Bearing (true) Bearing (mag) Slope Elevation
09 Localiser RNC 110.75 MHz 18 nm / 33 km 90.43° 86.95° - 43 ft / 13 m (AMSL)
09 Glidescope RNC 110.75 MHz 10 nm / 19 km 90.43° 86.95° 3.00° 82 ft / 25 m (AMSL)
09 DME RNC 110.75 MHz 18 nm / 33 km - - - 53 ft / 16 m (AMSL)

Popular Alternatives